Time;durP1;ratioP1;P1;durP2;ratioP2;P2;SDS_P1;SDS_P2;PMS_P1;PMS_P2;Temp;Humidity;BMP_temperature;BMP_pressure;BME280_temperature;BME280_humidity;BME280_pressure;Samples;Min_cycle;Max_cycle;Signal;HPM_P1;HPM_P2
2022/03/01 00:02:13;;;;;;;12.47;10.00;;;4.70;35.70;;;;;;5137114;27;20436;-45
2022/03/01 00:04:39;;;;;;;12.13;9.77;;;4.70;35.70;;;;;;5137648;27;20290;-45
2022/03/01 00:07:04;;;;;;;13.20;10.43;;;4.70;35.90;;;;;;5137097;27;20500;-45
2022/03/01 00:09:30;;;;;;;17.33;10.50;;;4.60;35.90;;;;;;5136197;27;20213;-44
2022/03/01 00:11:56;;;;;;;14.43;10.77;;;4.60;36.00;;;;;;5137864;27;20421;-45
2022/03/01 00:14:22;;;;;;;13.17;10.57;;;4.60;36.10;;;;;;5135130;27;20425;-45
2022/03/01 00:16:48;;;;;;;12.70;10.90;;;4.60;36.20;;;;;;5135335;27;20567;-45
2022/03/01 00:19:13;;;;;;;14.73;10.83;;;4.50;36.20;;;;;;5135293;27;20429;-45
2022/03/01 00:21:39;;;;;;;14.40;11.00;;;4.50;36.30;;;;;;5135659;27;20481;-45
2022/03/01 00:24:05;;;;;;;14.00;11.47;;;4.40;36.40;;;;;;5134116;28;20582;-44
2022/03/01 00:26:30;;;;;;;14.87;10.50;;;4.30;36.40;;;;;;5136540;28;20589;-45
2022/03/01 00:28:56;;;;;;;5.43;4.33;;;4.30;36.60;;;;;;5135558;28;20183;-44
2022/03/01 00:31:22;;;;;;;5.00;4.10;;;4.50;44.50;;;;;;5137250;28;20183;-43
2022/03/01 00:33:48;;;;;;;10.27;7.47;;;5.30;66.10;;;;;;5116381;28;20204;-45
2022/03/01 00:36:13;;;;;;;11.40;9.63;;;5.90;92.50;;;;;;5118478;28;20214;-45
2022/03/01 00:38:39;;;;;;;14.77;11.33;;;6.20;76.30;;;;;;5117196;28;20843;-45
2022/03/01 00:41:05;;;;;;;12.97;10.40;;;6.20;58.30;;;;;;5117151;28;20187;-44
2022/03/01 00:43:31;;;;;;;14.50;11.80;;;6.00;52.20;;;;;;5116514;28;20198;-45
2022/03/01 00:45:56;;;;;;;15.53;11.70;;;5.80;49.20;;;;;;5117806;28;20190;-45
2022/03/01 00:48:22;;;;;;;15.00;11.80;;;5.60;47.50;;;;;;5098543;28;20184;-44
2022/03/01 00:50:48;;;;;;;15.80;11.90;;;5.40;46.10;;;;;;5118014;28;20249;-44
2022/03/01 00:53:14;;;;;;;16.53;11.40;;;5.20;45.30;;;;;;5116642;28;20249;-45
2022/03/01 00:55:39;;;;;;;13.57;10.50;;;5.00;44.90;;;;;;5082835;28;20468;-44
2022/03/01 00:58:06;;;;;;;15.10;10.40;;;4.80;44.20;;;;;;5121150;28;20184;-44
2022/03/01 01:00:32;;;;;;;13.67;9.90;;;4.60;43.90;;;;;;5120793;28;20426;-44
2022/03/01 01:02:58;;;;;;;17.43;12.50;;;4.50;43.60;;;;;;5121658;28;20467;-44
2022/03/01 01:05:24;;;;;;;15.00;11.10;;;4.40;43.20;;;;;;5120594;28;20418;-44
2022/03/01 01:07:50;;;;;;;13.70;10.77;;;4.30;42.90;;;;;;5121797;28;20424;-44
2022/03/01 01:10:17;;;;;;;14.33;11.13;;;4.20;42.70;;;;;;5121163;28;20422;-44
2022/03/01 01:12:43;;;;;;;14.13;10.93;;;4.10;42.40;;;;;;5121572;28;20409;-45
2022/03/01 01:15:10;;;;;;;15.07;9.67;;;4.10;42.30;;;;;;5102042;28;20422;-45
2022/03/01 01:17:36;;;;;;;16.13;11.40;;;4.00;42.20;;;;;;5121691;28;20453;-44
2022/03/01 01:20:04;;;;;;;13.60;10.70;;;3.90;42.20;;;;;;5119384;28;20499;-44
2022/03/01 01:22:42;;;;;;;16.00;10.50;;;3.90;42.00;;;;;;5121174;28;20183;-44
2022/03/01 01:25:13;;;;;;;15.20;11.30;;;3.80;41.90;;;;;;5121253;28;20854;-44
2022/03/01 01:27:41;;;;;;;18.63;11.93;;;3.80;41.80;;;;;;5121401;28;20838;-44
2022/03/01 01:30:25;;;;;;;16.77;10.60;;;3.80;41.80;;;;;;5120251;28;20422;-45
2022/03/01 01:32:51;;;;;;;14.27;9.93;;;3.70;41.70;;;;;;5121311;28;20469;-44
2022/03/01 01:35:19;;;;;;;16.80;10.83;;;3.70;41.80;;;;;;5120894;28;20430;-44
2022/03/01 01:37:45;;;;;;;13.30;10.50;;;3.60;41.80;;;;;;5121086;28;20418;-44
2022/03/01 01:40:15;;;;;;;14.90;10.50;;;3.60;41.80;;;;;;5119982;28;20421;-45
2022/03/01 01:42:41;;;;;;;13.93;10.40;;;3.50;41.90;;;;;;5121011;28;20705;-44
2022/03/01 01:45:07;;;;;;;15.17;10.90;;;3.50;41.90;;;;;;5119548;28;20438;-45
2022/03/01 01:47:33;;;;;;;15.07;10.73;;;3.50;42.00;;;;;;5120805;28;20418;-44
2022/03/01 01:49:59;;;;;;;14.33;11.73;;;3.40;42.00;;;;;;5120298;28;20453;-44
2022/03/01 01:52:25;;;;;;;17.73;12.10;;;3.40;42.00;;;;;;5120479;28;20410;-44
2022/03/01 01:54:54;;;;;;;15.83;11.80;;;3.40;42.10;;;;;;5119317;28;20630;-44
2022/03/01 01:57:22;;;;;;;16.77;12.50;;;3.30;42.20;;;;;;5120667;28;20465;-44
2022/03/01 01:59:48;;;;;;;15.83;11.63;;;3.30;42.20;;;;;;5119617;28;20445;-45
2022/03/01 02:02:17;;;;;;;15.47;10.83;;;3.30;42.20;;;;;;5120711;28;20505;-44
2022/03/01 02:04:43;;;;;;;17.30;10.90;;;3.20;42.20;;;;;;5118973;28;20900;-44
2022/03/01 02:07:09;;;;;;;14.23;10.47;;;3.20;42.20;;;;;;5120173;28;20418;-44
2022/03/01 02:09:35;;;;;;;16.37;11.60;;;3.10;42.20;;;;;;5101058;28;20425;-44
2022/03/01 02:12:02;;;;;;;18.43;12.80;;;3.20;42.30;;;;;;5102242;28;20488;-43
2022/03/01 02:14:29;;;;;;;15.07;10.77;;;3.20;42.40;;;;;;5118720;28;20617;-44
2022/03/01 02:16:55;;;;;;;16.70;10.80;;;3.10;42.30;;;;;;5120361;28;20497;-44
2022/03/01 02:19:21;;;;;;;17.93;11.70;;;3.10;42.40;;;;;;5101212;28;20470;-44
2022/03/01 02:21:48;;;;;;;16.67;10.50;;;3.00;42.50;;;;;;5120550;28;20561;-44
2022/03/01 02:24:15;;;;;;;16.30;11.13;;;3.00;42.60;;;;;;5118762;28;20206;-44
2022/03/01 02:26:41;;;;;;;14.80;11.03;;;3.00;42.70;;;;;;5120332;28;20402;-44
2022/03/01 02:29:06;;;;;;;17.17;11.80;;;2.90;42.70;;;;;;5119002;28;20740;-45
2022/03/01 02:31:32;;;;;;;15.10;11.00;;;2.90;42.80;;;;;;5119948;28;20181;-44
2022/03/01 02:33:58;;;;;;;14.63;10.20;;;2.90;42.90;;;;;;5118556;28;20188;-44
2022/03/01 02:36:24;;;;;;;16.70;10.70;;;2.90;43.10;;;;;;5119733;28;20458;-44
2022/03/01 02:38:49;;;;;;;16.17;10.37;;;2.90;43.10;;;;;;5118545;28;20199;-44
2022/03/01 02:41:15;;;;;;;14.47;11.50;;;2.90;43.10;;;;;;5119715;28;20263;-44
2022/03/01 02:43:41;;;;;;;16.47;11.50;;;2.90;43.10;;;;;;5117952;28;20185;-44
2022/03/01 02:46:07;;;;;;;14.60;10.93;;;2.90;43.20;;;;;;5119924;28;20417;-44
2022/03/01 02:48:32;;;;;;;16.30;10.87;;;2.80;43.30;;;;;;5118394;28;20192;-44
2022/03/01 02:50:58;;;;;;;15.23;10.43;;;2.70;43.40;;;;;;5119548;28;20256;-45
2022/03/01 02:53:23;;;;;;;16.20;11.53;;;2.70;43.70;;;;;;5119209;28;20184;-44
2022/03/01 02:55:49;;;;;;;15.27;11.27;;;2.60;43.80;;;;;;5119567;28;20200;-44
2022/03/01 02:58:16;;;;;;;14.80;9.73;;;2.60;43.90;;;;;;5119405;28;20562;-44
2022/03/01 03:00:44;;;;;;;15.10;11.27;;;2.50;43.90;;;;;;5119077;28;20286;-44
2022/03/01 03:03:11;;;;;;;15.60;10.60;;;2.50;44.00;;;;;;5118890;28;20433;-44
2022/03/01 03:05:36;;;;;;;16.67;11.07;;;2.50;44.00;;;;;;5119422;28;20410;-44
2022/03/01 03:08:02;;;;;;;17.87;11.33;;;2.50;44.10;;;;;;5119192;28;20402;-44
2022/03/01 03:10:28;;;;;;;15.97;11.37;;;2.40;44.10;;;;;;5117616;28;20195;-45
2022/03/01 03:12:54;;;;;;;15.20;10.83;;;2.40;44.30;;;;;;5119828;28;20448;-44
2022/03/01 03:15:19;;;;;;;16.80;11.70;;;2.30;44.30;;;;;;5117832;28;20425;-44
2022/03/01 03:17:45;;;;;;;17.10;11.60;;;2.30;44.40;;;;;;5118929;28;20204;-44
2022/03/01 03:20:11;;;;;;;16.00;11.33;;;2.30;44.60;;;;;;5118619;28;20253;-44
2022/03/01 03:22:36;;;;;;;19.20;12.10;;;2.20;44.70;;;;;;5118801;28;20180;-44
2022/03/01 03:25:03;;;;;;;16.47;11.50;;;2.20;44.70;;;;;;5117494;28;20185;-44
2022/03/01 03:27:29;;;;;;;18.90;10.77;;;2.20;44.80;;;;;;5119178;28;20188;-44
2022/03/01 03:29:54;;;;;;;15.50;11.70;;;2.10;44.80;;;;;;5117807;28;20853;-44
2022/03/01 03:32:20;;;;;;;17.00;10.40;;;2.10;45.00;;;;;;5118480;28;20220;-44
2022/03/01 03:34:46;;;;;;;15.87;11.00;;;2.00;45.10;;;;;;5117858;28;20417;-45
2022/03/01 03:37:12;;;;;;;18.47;12.10;;;2.00;45.20;;;;;;5119005;28;20217;-44
2022/03/01 03:39:37;;;;;;;13.63;10.93;;;2.00;45.20;;;;;;5117542;28;20463;-44
2022/03/01 03:42:03;;;;;;;16.40;11.20;;;2.00;45.80;;;;;;5118525;28;20176;-44
2022/03/01 03:44:29;;;;;;;14.63;11.23;;;2.00;45.40;;;;;;5118612;28;20444;-45
2022/03/01 03:46:54;;;;;;;15.17;11.00;;;1.90;45.30;;;;;;5117634;28;20257;-45
2022/03/01 03:49:22;;;;;;;17.10;11.63;;;1.90;45.50;;;;;;5115116;28;20204;-44
2022/03/01 03:51:48;;;;;;;18.30;12.23;;;1.90;45.50;;;;;;5117067;28;20164;-45
2022/03/01 03:54:13;;;;;;;16.90;12.53;;;1.80;45.40;;;;;;5115387;28;20773;-45
2022/03/01 03:56:39;;;;;;;20.63;13.47;;;1.80;45.50;;;;;;5099131;28;20176;-45
2022/03/01 03:59:07;;;;;;;13.73;10.23;;;1.70;45.60;;;;;;5116899;28;20255;-45
2022/03/01 04:01:33;;;;;;;20.87;12.73;;;1.70;45.70;;;;;;5115967;28;20176;-45
2022/03/01 04:04:00;;;;;;;16.17;11.60;;;1.60;45.90;;;;;;5116750;28;20387;-44
2022/03/01 04:06:26;;;;;;;16.20;11.20;;;1.60;45.80;;;;;;5116448;28;20962;-44
2022/03/01 04:08:52;;;;;;;15.33;12.03;;;1.60;45.90;;;;;;5117897;28;20533;-44
2022/03/01 04:11:17;;;;;;;20.50;12.27;;;1.60;46.00;;;;;;5116924;28;20468;-45
2022/03/01 04:13:43;;;;;;;17.03;11.70;;;1.60;46.10;;;;;;5118018;28;20200;-45
2022/03/01 04:16:09;;;;;;;18.57;12.10;;;1.60;46.10;;;;;;5115639;28;20257;-44
2022/03/01 04:18:35;;;;;;;18.27;11.50;;;1.50;46.20;;;;;;5117948;28;20180;-45
2022/03/01 04:21:01;;;;;;;17.63;11.53;;;1.50;46.20;;;;;;5117696;28;20188;-44
2022/03/01 04:23:27;;;;;;;16.00;10.87;;;1.50;46.30;;;;;;5117606;28;20410;-44
2022/03/01 04:25:53;;;;;;;16.97;11.00;;;1.50;46.40;;;;;;5116310;28;20582;-44
2022/03/01 04:28:19;;;;;;;19.60;12.60;;;1.40;46.50;;;;;;5116848;28;20418;-45
2022/03/01 04:30:45;;;;;;;16.30;11.60;;;1.40;46.60;;;;;;5117815;28;20414;-44
2022/03/01 04:33:11;;;;;;;15.90;12.30;;;1.40;46.70;;;;;;5120447;28;20228;-45
2022/03/01 04:35:37;;;;;;;17.53;11.93;;;1.30;46.70;;;;;;5120602;28;20693;-44
2022/03/01 04:38:03;;;;;;;19.40;12.13;;;1.30;46.80;;;;;;5121285;28;20256;-44
2022/03/01 04:40:29;;;;;;;16.40;11.83;;;1.40;47.00;;;;;;5119868;28;20238;-44
2022/03/01 04:42:54;;;;;;;14.67;11.07;;;1.40;47.10;;;;;;5121654;28;20820;-44
2022/03/01 04:45:20;;;;;;;18.50;11.27;;;1.40;47.20;;;;;;5120891;28;20191;-44
2022/03/01 04:47:46;;;;;;;17.57;11.57;;;1.40;47.20;;;;;;5121658;28;20303;-44
2022/03/01 04:50:12;;;;;;;15.87;11.77;;;1.40;47.20;;;;;;5119889;28;20421;-45
2022/03/01 04:52:38;;;;;;;15.90;10.97;;;1.40;47.30;;;;;;5121615;28;20199;-44
2022/03/01 04:55:04;;;;;;;17.10;12.47;;;1.40;47.20;;;;;;5120598;28;20465;-45
2022/03/01 04:57:30;;;;;;;19.53;11.77;;;1.40;47.20;;;;;;5121258;28;20414;-44
2022/03/01 04:59:56;;;;;;;13.60;10.20;;;1.40;47.20;;;;;;5121241;28;20711;-44
2022/03/01 05:02:21;;;;;;;18.00;11.87;;;1.40;47.20;;;;;;5121178;28;20525;-44
2022/03/01 05:04:47;;;;;;;14.73;10.60;;;1.40;47.10;;;;;;5119576;28;20426;-47
2022/03/01 05:07:13;;;;;;;13.70;10.73;;;1.40;47.10;;;;;;5119505;28;20212;-47
2022/03/01 05:09:39;;;;;;;20.00;11.53;;;1.40;47.10;;;;;;5117511;28;20259;-47
2022/03/01 05:12:05;;;;;;;19.90;12.57;;;1.40;47.10;;;;;;5117294;28;20199;-47
2022/03/01 05:14:30;;;;;;;20.43;12.10;;;1.40;47.10;;;;;;5117062;28;20495;-47
2022/03/01 05:16:56;;;;;;;14.87;11.60;;;1.40;47.10;;;;;;5116243;28;20920;-47
2022/03/01 05:19:22;;;;;;;17.50;11.97;;;1.40;47.10;;;;;;5115679;28;20168;-47
2022/03/01 05:21:47;;;;;;;18.67;11.60;;;1.40;47.10;;;;;;5117458;28;20180;-47
2022/03/01 05:24:14;;;;;;;17.37;11.70;;;1.40;47.00;;;;;;5118374;28;20192;-47
2022/03/01 05:26:39;;;;;;;16.53;11.90;;;1.40;46.90;;;;;;5118270;28;20275;-47
2022/03/01 05:29:07;;;;;;;16.03;11.10;;;1.40;47.00;;;;;;5118100;28;20832;-47
2022/03/01 05:31:33;;;;;;;16.10;12.77;;;1.40;47.20;;;;;;5103743;27;20188;-47
2022/03/01 05:33:59;;;;;;;18.20;12.60;;;1.30;47.30;;;;;;5138920;27;20406;-47
2022/03/01 05:36:25;;;;;;;16.27;11.60;;;1.30;47.40;;;;;;5139106;27;20840;-47
2022/03/01 05:38:51;;;;;;;19.70;14.40;;;1.30;47.40;;;;;;5138751;27;20817;-47
2022/03/01 05:41:19;;;;;;;14.97;11.10;;;1.30;47.40;;;;;;5138921;27;20188;-47
2022/03/01 05:43:45;;;;;;;14.90;10.40;;;1.30;47.50;;;;;;5138623;27;20187;-47
2022/03/01 05:46:10;;;;;;;14.93;11.00;;;1.20;47.50;;;;;;5119983;27;20900;-48
2022/03/01 05:48:36;;;;;;;16.07;12.20;;;1.20;47.60;;;;;;5139665;27;20592;-47
2022/03/01 05:51:04;;;;;;;16.07;11.90;;;1.10;47.60;;;;;;5139775;27;20258;-47
2022/03/01 05:53:30;;;;;;;16.57;11.60;;;1.10;47.70;;;;;;5140061;27;20241;-47
2022/03/01 05:55:55;;;;;;;16.47;11.90;;;1.10;47.80;;;;;;5140820;27;20877;-47
2022/03/01 05:58:21;;;;;;;17.57;14.30;;;1.10;48.20;;;;;;5140173;27;20503;-47
2022/03/01 06:00:47;;;;;;;15.20;11.90;;;1.10;47.90;;;;;;5138770;27;20211;-47
2022/03/01 06:03:12;;;;;;;16.47;11.70;;;1.10;47.90;;;;;;5138247;27;20393;-47
2022/03/01 06:05:38;;;;;;;16.13;11.90;;;1.00;47.90;;;;;;5119073;27;20223;-47
2022/03/01 06:08:04;;;;;;;17.40;12.60;;;1.00;48.00;;;;;;5137918;27;20488;-47
2022/03/01 06:10:31;;;;;;;15.80;11.90;;;1.00;48.20;;;;;;5137328;27;20263;-47
2022/03/01 06:12:57;;;;;;;17.40;11.50;;;1.00;48.20;;;;;;5138927;27;20413;-47
2022/03/01 06:15:23;;;;;;;15.00;12.57;;;1.00;48.30;;;;;;5119255;27;20409;-47
2022/03/01 06:17:49;;;;;;;17.80;12.50;;;0.90;48.30;;;;;;5136627;27;20654;-47
2022/03/01 06:20:15;;;;;;;19.17;13.63;;;1.00;48.40;;;;;;5135966;27;20209;-48
2022/03/01 06:22:41;;;;;;;19.43;12.77;;;0.90;48.30;;;;;;5137037;27;20198;-47
2022/03/01 06:25:08;;;;;;;19.20;12.80;;;0.90;48.40;;;;;;5135169;27;20413;-48
2022/03/01 06:27:37;;;;;;;18.10;12.83;;;0.90;48.50;;;;;;5136223;27;20464;-47
2022/03/01 06:30:04;;;;;;;15.40;11.47;;;0.90;48.60;;;;;;5137168;27;20683;-47
2022/03/01 06:32:30;;;;;;;17.10;11.73;;;0.90;48.70;;;;;;5106994;28;20521;-47
2022/03/01 06:34:57;;;;;;;14.80;10.70;;;1.10;49.00;;;;;;5117324;28;20446;-47
2022/03/01 06:37:23;;;;;;;19.30;12.97;;;1.30;48.80;;;;;;5116755;28;20425;-47
2022/03/01 06:39:50;;;;;;;15.97;11.50;;;1.60;48.50;;;;;;5118455;28;20194;-47
2022/03/01 06:42:17;;;;;;;13.27;10.43;;;1.70;48.10;;;;;;5117179;28;20414;-47
2022/03/01 06:44:43;;;;;;;19.60;13.00;;;1.80;47.90;;;;;;5117631;28;20417;-47
2022/03/01 06:47:09;;;;;;;16.60;12.03;;;1.80;47.80;;;;;;5116963;28;20469;-47
2022/03/01 06:49:35;;;;;;;15.70;11.80;;;1.80;47.90;;;;;;5116033;28;20410;-47
2022/03/01 06:52:00;;;;;;;14.07;11.90;;;1.90;47.90;;;;;;5112811;28;20196;-48
2022/03/01 06:54:26;;;;;;;16.53;11.53;;;2.00;48.10;;;;;;5095390;28;20224;-48
2022/03/01 06:56:52;;;;;;;18.10;12.87;;;2.10;48.30;;;;;;5114989;28;20677;-47
2022/03/01 06:59:17;;;;;;;18.57;12.17;;;2.20;48.20;;;;;;5116811;28;20194;-48
2022/03/01 07:01:43;;;;;;;18.43;12.23;;;2.40;48.20;;;;;;5097871;28;20509;-47
2022/03/01 07:04:09;;;;;;;18.30;12.17;;;2.50;47.90;;;;;;5116732;28;20268;-47
2022/03/01 07:06:34;;;;;;;18.33;12.60;;;2.70;47.60;;;;;;5116120;28;20204;-47
2022/03/01 07:09:00;;;;;;;17.33;12.90;;;2.90;47.20;;;;;;5117855;28;20180;-47
2022/03/01 07:11:26;;;;;;;15.80;12.13;;;3.10;46.70;;;;;;5117362;28;20211;-47
2022/03/01 07:13:52;;;;;;;19.07;13.00;;;3.30;46.10;;;;;;5118408;28;20267;-47
2022/03/01 07:16:17;;;;;;;15.63;11.80;;;3.60;45.70;;;;;;5117542;28;20409;-47
2022/03/01 07:18:43;;;;;;;18.13;12.60;;;3.80;45.20;;;;;;5115934;28;20217;-47
2022/03/01 07:21:10;;;;;;;17.50;12.07;;;4.00;44.70;;;;;;5117057;28;20480;-47
2022/03/01 07:23:35;;;;;;;17.90;12.47;;;4.30;44.20;;;;;;5115796;28;20437;-47
2022/03/01 07:26:03;;;;;;;15.80;11.90;;;4.60;43.70;;;;;;5116650;28;20465;-47
2022/03/01 07:28:29;;;;;;;20.07;12.70;;;4.80;43.10;;;;;;5116071;28;20237;-48
2022/03/01 07:30:55;;;;;;;16.50;12.00;;;5.10;42.60;;;;;;5098601;28;20406;-47
2022/03/01 07:33:20;;;;;;;14.53;11.40;;;5.30;42.10;;;;;;5114149;28;20255;-47
2022/03/01 07:35:46;;;;;;;17.13;12.00;;;5.50;41.40;;;;;;5116962;28;20481;-47
2022/03/01 07:38:12;;;;;;;13.50;12.07;;;5.80;41.00;;;;;;5115478;28;20173;-47
2022/03/01 07:40:38;;;;;;;15.37;11.00;;;6.00;40.50;;;;;;5117240;28;20413;-47
2022/03/01 07:43:06;;;;;;;17.57;13.00;;;6.30;40.20;;;;;;5116874;28;20183;-47
2022/03/01 07:45:32;;;;;;;16.37;12.23;;;6.50;39.60;;;;;;5098600;28;20495;-48
2022/03/01 07:47:58;;;;;;;16.37;12.50;;;6.80;39.30;;;;;;5113855;28;20433;-47
2022/03/01 07:50:24;;;;;;;16.07;12.27;;;7.10;39.00;;;;;;5116579;28;20184;-47
2022/03/01 07:52:50;;;;;;;17.10;13.03;;;7.40;38.50;;;;;;5114939;28;20436;-47
2022/03/01 07:55:16;;;;;;;15.60;12.27;;;7.60;38.00;;;;;;5116123;28;20192;-48
2022/03/01 07:57:42;;;;;;;13.50;11.60;;;7.90;37.50;;;;;;5115297;28;20614;-47
2022/03/01 08:00:09;;;;;;;14.47;11.47;;;8.20;37.10;;;;;;5114520;28;20641;-48
2022/03/01 08:02:36;;;;;;;14.63;12.33;;;8.50;36.60;;;;;;5112953;28;20271;-48
2022/03/01 08:05:06;;;;;;;16.70;12.67;;;8.70;35.70;;;;;;5113213;28;20430;-48
2022/03/01 08:07:33;;;;;;;15.60;12.17;;;9.00;35.00;;;;;;5111663;28;20935;-48
2022/03/01 08:09:59;;;;;;;17.77;13.03;;;9.20;34.60;;;;;;5112564;28;20460;-48
2022/03/01 08:12:25;;;;;;;16.07;12.60;;;9.50;34.40;;;;;;5112114;28;20413;-48
2022/03/01 08:14:50;;;;;;;12.33;10.53;;;9.70;34.10;;;;;;5116107;28;20403;-48
2022/03/01 08:17:17;;;;;;;17.47;13.60;;;10.10;33.30;;;;;;5115894;28;20191;-48
2022/03/01 08:19:43;;;;;;;13.43;11.87;;;10.40;32.80;;;;;;5114896;28;20212;-48
2022/03/01 08:22:09;;;;;;;15.20;11.07;;;10.60;32.40;;;;;;5114627;28;20529;-48
2022/03/01 08:24:35;;;;;;;16.50;12.10;;;10.90;32.20;;;;;;5115736;28;20579;-48
2022/03/01 08:27:00;;;;;;;16.43;13.47;;;11.20;31.90;;;;;;5115408;28;20493;-48
2022/03/01 08:29:28;;;;;;;14.50;12.50;;;11.60;31.70;;;;;;5115831;28;20176;-47
2022/03/01 08:31:54;;;;;;;15.03;13.27;;;11.90;31.10;;;;;;5115992;28;20289;-48
2022/03/01 08:34:19;;;;;;;15.83;12.97;;;12.20;30.50;;;;;;5116266;28;20507;-47
2022/03/01 08:36:45;;;;;;;16.17;14.07;;;12.60;30.10;;;;;;5116726;28;20180;-48
2022/03/01 08:39:11;;;;;;;18.07;14.63;;;12.90;29.70;;;;;;5115919;28;20303;-47
2022/03/01 08:41:36;;;;;;;18.87;14.90;;;13.20;29.80;;;;;;5115955;28;20206;-48
2022/03/01 08:44:03;;;;;;;18.07;15.00;;;13.60;29.50;;;;;;5115094;28;20498;-48
2022/03/01 08:46:29;;;;;;;18.53;15.50;;;14.00;29.10;;;;;;5115423;28;20570;-48
2022/03/01 08:48:55;;;;;;;14.83;13.27;;;14.30;28.70;;;;;;5115417;28;20521;-48
2022/03/01 08:51:21;;;;;;;15.80;12.03;;;14.60;28.10;;;;;;5116220;28;20176;-48
2022/03/01 08:53:48;;;;;;;14.60;11.47;;;14.80;27.70;;;;;;5116977;28;20442;-48
2022/03/01 08:56:15;;;;;;;14.20;12.13;;;15.00;27.30;;;;;;5116796;28;20418;-48
2022/03/01 08:58:42;;;;;;;13.03;11.63;;;15.30;27.10;;;;;;5115216;28;20468;-48
2022/03/01 09:01:07;;;;;;;13.27;11.07;;;15.50;26.70;;;;;;5098835;28;20465;-48
2022/03/01 09:03:33;;;;;;;13.43;11.57;;;15.60;26.40;;;;;;5117023;28;20457;-48
2022/03/01 09:05:59;;;;;;;16.70;11.23;;;15.90;26.20;;;;;;5116394;28;20208;-48
2022/03/01 09:08:25;;;;;;;12.53;11.23;;;16.10;25.90;;;;;;5114949;28;20186;-48
2022/03/01 09:10:51;;;;;;;14.10;11.83;;;16.30;25.80;;;;;;5114661;28;20504;-48
2022/03/01 09:13:17;;;;;;;11.77;10.53;;;16.60;25.70;;;;;;5096223;28;20410;-48
2022/03/01 09:15:42;;;;;;;11.50;10.30;;;16.90;25.40;;;;;;5114734;28;20176;-48
2022/03/01 09:18:08;;;;;;;13.00;10.70;;;17.30;25.30;;;;;;5116378;28;20502;-48
2022/03/01 09:20:34;;;;;;;12.63;11.10;;;17.50;24.80;;;;;;5120122;28;20585;-48
2022/03/01 09:23:01;;;;;;;12.13;10.93;;;17.70;24.80;;;;;;5119677;28;20233;-47
2022/03/01 09:25:28;;;;;;;14.00;12.03;;;18.00;24.90;;;;;;5119789;28;20727;-48
2022/03/01 09:27:53;;;;;;;11.83;10.53;;;18.40;24.70;;;;;;5119632;28;20544;-48
2022/03/01 09:30:20;;;;;;;13.97;12.03;;;18.60;24.40;;;;;;5102385;28;20410;-48
2022/03/01 09:32:46;;;;;;;12.70;11.43;;;18.80;23.90;;;;;;5118221;28;20319;-48
2022/03/01 09:35:12;;;;;;;12.70;11.13;;;19.00;23.90;;;;;;5118825;28;20894;-48
2022/03/01 09:37:38;;;;;;;12.70;11.17;;;19.30;23.60;;;;;;5100366;28;20521;-48
2022/03/01 09:40:06;;;;;;;12.43;11.13;;;19.50;23.40;;;;;;5114361;28;20524;-48
2022/03/01 09:42:32;;;;;;;13.40;10.73;;;19.70;23.40;;;;;;5098483;28;20854;-48
2022/03/01 09:44:58;;;;;;;11.30;10.10;;;20.00;23.40;;;;;;5098450;28;20433;-48
2022/03/01 09:47:25;;;;;;;12.90;11.60;;;20.40;23.30;;;;;;5098825;28;20466;-48
2022/03/01 09:49:51;;;;;;;12.37;11.10;;;20.60;23.20;;;;;;5098315;28;20452;-48
2022/03/01 09:52:17;;;;;;;12.60;11.30;;;21.00;22.90;;;;;;5099148;28;20418;-48
2022/03/01 09:54:43;;;;;;;12.10;10.90;;;21.30;22.80;;;;;;5098620;28;20953;-48
2022/03/01 09:57:17;;;;;;;12.50;11.20;;;21.50;22.60;;;;;;5096765;28;20421;-48
2022/03/01 09:59:42;;;;;;;13.20;12.00;;;21.80;22.50;;;;;;5095981;28;20215;-46
2022/03/01 10:02:09;;;;;;;14.40;12.10;;;21.90;22.20;;;;;;5098434;28;20458;-46
2022/03/01 10:04:49;;;;;;;11.60;10.40;;;22.10;22.20;;;;;;5080413;28;20190;-45
2022/03/01 10:07:24;;;;;;;12.00;10.90;;;22.30;22.20;;;;;;5096197;28;20798;-47
2022/03/01 10:09:50;;;;;;;12.63;11.40;;;22.50;22.20;;;;;;5096465;28;20778;-46
2022/03/01 10:12:26;;;;;;;8.80;7.27;;;22.90;22.10;;;;;;5097875;28;20497;-47
2022/03/01 10:14:59;;;;;;;7.57;6.83;;;23.40;25.30;;;;;;5096873;28;20415;-47
2022/03/01 10:17:42;;;;;;;10.33;7.40;;;24.10;29.10;;;;;;5096354;28;20629;-47
2022/03/01 10:20:13;;;;;;;8.03;7.33;;;24.70;28.50;;;;;;5059186;28;20429;-48
2022/03/01 10:22:44;;;;;;;7.80;7.10;;;25.30;28.10;;;;;;5096537;28;20859;-47
2022/03/01 10:25:11;;;;;;;8.53;7.70;;;25.70;27.70;;;;;;5095375;28;20762;-48
2022/03/01 10:27:37;;;;;;;8.70;7.90;;;26.10;26.60;;;;;;5092350;28;20753;-48
2022/03/01 10:30:05;;;;;;;8.77;7.87;;;26.60;26.20;;;;;;5116991;28;20414;-48
2022/03/01 10:32:32;;;;;;;9.17;8.17;;;26.90;25.90;;;;;;5116150;28;20472;-48
2022/03/01 10:35:04;;;;;;;9.00;8.20;;;27.20;25.60;;;;;;5113524;28;20416;-47
2022/03/01 10:37:32;;;;;;;9.13;8.23;;;27.50;25.40;;;;;;5116210;28;20462;-47
2022/03/01 10:40:19;;;;;;;9.67;8.80;;;27.70;25.20;;;;;;5115426;28;20414;-48
2022/03/01 10:42:56;;;;;;;8.40;7.70;;;28.00;24.60;;;;;;5113976;28;20409;-48
2022/03/01 10:45:30;;;;;;;9.47;8.57;;;28.30;24.10;;;;;;5112696;28;20876;-47
2022/03/01 10:47:56;;;;;;;9.33;8.53;;;28.40;24.40;;;;;;5112820;28;20396;-48
2022/03/01 10:50:23;;;;;;;8.80;8.00;;;28.70;24.30;;;;;;5112571;28;20426;-48
2022/03/01 10:52:49;;;;;;;9.47;8.67;;;28.70;24.50;;;;;;5116154;28;20575;-48
2022/03/01 10:55:29;;;;;;;10.00;9.20;;;28.90;23.60;;;;;;5116235;28;20407;-48
2022/03/01 10:58:06;;;;;;;9.93;8.93;;;28.80;23.70;;;;;;5115662;28;20468;-48
2022/03/01 11:00:33;;;;;;;8.50;7.80;;;29.10;23.40;;;;;;5115398;28;20695;-48
2022/03/01 11:02:59;;;;;;;11.17;10.07;;;29.40;23.00;;;;;;5116354;28;20414;-48
2022/03/01 11:05:29;;;;;;;8.93;8.10;;;29.40;23.20;;;;;;5115403;28;20428;-48
2022/03/01 11:07:55;;;;;;;9.27;8.43;;;29.70;24.00;;;;;;5114738;28;20506;-48
2022/03/01 11:10:22;;;;;;;9.73;8.90;;;29.80;23.80;;;;;;5079465;28;20501;-53
2022/03/01 11:12:49;;;;;;;9.80;9.00;;;30.00;23.30;;;;;;5114976;28;20502;-48
2022/03/01 11:15:28;;;;;;;9.87;9.03;;;30.00;22.50;;;;;;5096963;28;20697;-48
2022/03/01 11:17:54;;;;;;;10.03;9.13;;;30.40;22.30;;;;;;5097501;28;20452;-48
2022/03/01 11:20:26;;;;;;;9.47;8.67;;;30.40;22.20;;;;;;5095310;28;20906;-48
2022/03/01 11:23:02;;;;;;;10.70;9.77;;;30.50;22.60;;;;;;5095240;28;20176;-48
2022/03/01 11:25:36;;;;;;;8.87;8.17;;;30.80;22.10;;;;;;5077200;28;20682;-48
2022/03/01 11:28:05;;;;;;;9.97;9.03;;;31.30;23.10;;;;;;5077755;28;20423;-48
2022/03/01 11:30:37;;;;;;;10.90;9.80;;;31.70;22.60;;;;;;5095262;28;20403;-48
2022/03/01 11:33:03;;;;;;;9.90;9.00;;;31.70;21.80;;;;;;5109569;28;20451;-48
2022/03/01 11:35:33;;;;;;;9.20;8.40;;;31.70;22.30;;;;;;5115245;28;20426;-48
2022/03/01 11:38:14;;;;;;;9.77;8.83;;;31.80;22.60;;;;;;5098644;28;20533;-48
2022/03/01 11:40:55;;;;;;;8.23;7.53;;;32.30;22.70;;;;;;5113120;28;20590;-48
2022/03/01 11:43:26;;;;;;;8.63;7.77;;;32.60;22.90;;;;;;5099143;28;20424;-48
2022/03/01 11:45:55;;;;;;;8.80;8.03;;;32.90;22.60;;;;;;5113981;28;20408;-48
2022/03/01 11:48:25;;;;;;;8.13;7.43;;;33.40;22.60;;;;;;5114127;28;20452;-47
2022/03/01 11:51:03;;;;;;;7.93;7.23;;;34.00;22.50;;;;;;5113675;28;20402;-48
2022/03/01 11:53:31;;;;;;;8.70;7.90;;;34.10;22.40;;;;;;5097264;28;20651;-48
2022/03/01 11:55:58;;;;;;;8.13;7.33;;;34.20;22.00;;;;;;5096201;28;20687;-48
2022/03/01 11:58:24;;;;;;;8.60;7.90;;;34.70;22.40;;;;;;5097109;28;20786;-48
2022/03/01 12:00:51;;;;;;;10.70;9.70;;;33.90;20.80;;;;;;5115989;28;20885;-48
2022/03/01 12:03:22;;;;;;;9.63;8.83;;;33.30;19.60;;;;;;5117021;28;20421;-48
2022/03/01 12:05:49;;;;;;;9.70;9.00;;;32.90;20.80;;;;;;5117047;28;20823;-48
2022/03/01 12:08:16;;;;;;;10.33;9.50;;;32.70;21.00;;;;;;5116682;28;20386;-49
2022/03/01 12:11:05;;;;;;;9.30;8.60;;;32.60;21.60;;;;;;5115048;28;20414;-49
2022/03/01 12:13:45;;;;;;;8.70;8.00;;;32.80;22.10;;;;;;5115576;28;20416;-48
2022/03/01 12:16:13;;;;;;;8.20;7.50;;;32.60;22.10;;;;;;5116663;28;20463;-49
2022/03/01 12:18:42;;;;;;;8.00;7.30;;;32.90;22.40;;;;;;5114266;28;20850;-49
2022/03/01 12:21:10;;;;;;;8.90;8.17;;;33.20;22.50;;;;;;5113566;28;20431;-49
2022/03/01 12:23:39;;;;;;;8.50;7.73;;;33.50;22.20;;;;;;5114136;28;20924;-49
2022/03/01 12:26:06;;;;;;;7.60;6.90;;;33.80;22.10;;;;;;5113439;28;20703;-49
2022/03/01 12:28:39;;;;;;;8.60;7.80;;;34.30;22.10;;;;;;5112967;28;20387;-48
2022/03/01 12:31:11;;;;;;;9.27;8.47;;;34.70;22.10;;;;;;5112751;28;20400;-48
2022/03/01 12:33:37;;;;;;;9.00;8.20;;;35.00;21.60;;;;;;5113300;28;20806;-48
2022/03/01 12:36:03;;;;;;;7.83;7.23;;;35.30;21.40;;;;;;5093229;28;20615;-49
2022/03/01 12:38:30;;;;;;;9.37;8.67;;;35.60;21.70;;;;;;5110213;28;20463;-49